sensor_id;sensor_type;location;lat;lon;timestamp;P1;durP1;ratioP1;P2;durP2;ratioP2
47429;SDS011;33181;49.246;7.372;2022-10-29T00:00:38;23.57;;;11.60;;
47429;SDS011;33181;49.246;7.372;2022-10-29T00:03:05;19.17;;;11.63;;
47429;SDS011;33181;49.246;7.372;2022-10-29T00:05:31;22.20;;;11.43;;
47429;SDS011;33181;49.246;7.372;2022-10-29T00:07:57;16.40;;;11.70;;
47429;SDS011;33181;49.246;7.372;2022-10-29T00:10:23;17.87;;;11.33;;
47429;SDS011;33181;49.246;7.372;2022-10-29T00:12:50;21.87;;;12.20;;
47429;SDS011;33181;49.246;7.372;2022-10-29T00:15:16;17.30;;;10.87;;
47429;SDS011;33181;49.246;7.372;2022-10-29T00:17:41;15.53;;;10.50;;
47429;SDS011;33181;49.246;7.372;2022-10-29T00:20:07;15.93;;;11.13;;
47429;SDS011;33181;49.246;7.372;2022-10-29T00:22:34;21.93;;;11.23;;
47429;SDS011;33181;49.246;7.372;2022-10-29T00:25:00;23.90;;;13.10;;
47429;SDS011;33181;49.246;7.372;2022-10-29T00:27:26;25.77;;;12.77;;
47429;SDS011;33181;49.246;7.372;2022-10-29T00:29:51;28.13;;;13.20;;
47429;SDS011;33181;49.246;7.372;2022-10-29T00:32:19;31.20;;;12.40;;
47429;SDS011;33181;49.246;7.372;2022-10-29T00:34:45;22.90;;;12.77;;
47429;SDS011;33181;49.246;7.372;2022-10-29T00:37:11;21.90;;;12.33;;
47429;SDS011;33181;49.246;7.372;2022-10-29T00:39:37;15.53;;;11.40;;
47429;SDS011;33181;49.246;7.372;2022-10-29T00:42:03;22.60;;;11.83;;
47429;SDS011;33181;49.246;7.372;2022-10-29T00:44:33;19.97;;;11.87;;
47429;SDS011;33181;49.246;7.372;2022-10-29T00:47:09;18.60;;;11.23;;
47429;SDS011;33181;49.246;7.372;2022-10-29T00:49:38;18.57;;;12.60;;
47429;SDS011;33181;49.246;7.372;2022-10-29T00:52:06;19.60;;;11.40;;
47429;SDS011;33181;49.246;7.372;2022-10-29T00:54:34;22.77;;;12.87;;
47429;SDS011;33181;49.246;7.372;2022-10-29T00:57:15;17.30;;;10.80;;
47429;SDS011;33181;49.246;7.372;2022-10-29T00:59:47;19.70;;;10.90;;
47429;SDS011;33181;49.246;7.372;2022-10-29T01:02:14;19.37;;;11.67;;
47429;SDS011;33181;49.246;7.372;2022-10-29T01:04:41;16.67;;;11.30;;
47429;SDS011;33181;49.246;7.372;2022-10-29T01:07:07;21.53;;;11.33;;
47429;SDS011;33181;49.246;7.372;2022-10-29T01:09:34;17.63;;;10.93;;
47429;SDS011;33181;49.246;7.372;2022-10-29T01:15:22;16.80;;;10.63;;
47429;SDS011;33181;49.246;7.372;2022-10-29T01:33:24;20.60;;;10.50;;
47429;SDS011;33181;49.246;7.372;2022-10-29T01:42:15;17.27;;;11.00;;
47429;SDS011;33181;49.246;7.372;2022-10-29T01:45:15;17.97;;;10.83;;
47429;SDS011;33181;49.246;7.372;2022-10-29T01:47:58;23.87;;;10.50;;
47429;SDS011;33181;49.246;7.372;2022-10-29T01:50:31;17.07;;;10.07;;
47429;SDS011;33181;49.246;7.372;2022-10-29T01:52:58;18.67;;;10.90;;
47429;SDS011;33181;49.246;7.372;2022-10-29T01:55:28;22.00;;;10.97;;
47429;SDS011;33181;49.246;7.372;2022-10-29T01:57:59;14.93;;;9.73;;
47429;SDS011;33181;49.246;7.372;2022-10-29T02:00:47;19.40;;;11.50;;
47429;SDS011;33181;49.246;7.372;2022-10-29T02:04:17;21.60;;;10.93;;
47429;SDS011;33181;49.246;7.372;2022-10-29T02:12:51;21.93;;;12.50;;
47429;SDS011;33181;49.246;7.372;2022-10-29T02:15:20;20.40;;;11.23;;
47429;SDS011;33181;49.246;7.372;2022-10-29T02:17:59;19.07;;;11.83;;
47429;SDS011;33181;49.246;7.372;2022-10-29T02:20:28;16.73;;;10.80;;
47429;SDS011;33181;49.246;7.372;2022-10-29T02:22:54;21.67;;;12.27;;
47429;SDS011;33181;49.246;7.372;2022-10-29T02:25:20;19.47;;;11.40;;
47429;SDS011;33181;49.246;7.372;2022-10-29T02:27:46;19.47;;;11.20;;
47429;SDS011;33181;49.246;7.372;2022-10-29T02:30:12;21.03;;;11.90;;
47429;SDS011;33181;49.246;7.372;2022-10-29T02:32:39;25.37;;;12.17;;
47429;SDS011;33181;49.246;7.372;2022-10-29T02:35:05;24.17;;;11.90;;
47429;SDS011;33181;49.246;7.372;2022-10-29T02:37:32;16.93;;;10.77;;
47429;SDS011;33181;49.246;7.372;2022-10-29T02:39:57;18.97;;;10.93;;
47429;SDS011;33181;49.246;7.372;2022-10-29T02:42:23;21.47;;;11.30;;
47429;SDS011;33181;49.246;7.372;2022-10-29T02:44:50;25.23;;;11.43;;
47429;SDS011;33181;49.246;7.372;2022-10-29T02:47:15;18.77;;;11.20;;
47429;SDS011;33181;49.246;7.372;2022-10-29T02:49:41;16.10;;;10.80;;
47429;SDS011;33181;49.246;7.372;2022-10-29T02:52:07;18.33;;;11.50;;
47429;SDS011;33181;49.246;7.372;2022-10-29T02:54:33;19.40;;;10.47;;
47429;SDS011;33181;49.246;7.372;2022-10-29T02:56:59;18.07;;;10.23;;
47429;SDS011;33181;49.246;7.372;2022-10-29T02:59:24;15.93;;;10.60;;
47429;SDS011;33181;49.246;7.372;2022-10-29T03:01:50;14.97;;;10.57;;
47429;SDS011;33181;49.246;7.372;2022-10-29T03:04:16;16.40;;;10.83;;
47429;SDS011;33181;49.246;7.372;2022-10-29T03:06:42;21.90;;;10.90;;
47429;SDS011;33181;49.246;7.372;2022-10-29T03:09:08;19.07;;;11.03;;
47429;SDS011;33181;49.246;7.372;2022-10-29T03:11:33;16.53;;;10.10;;
47429;SDS011;33181;49.246;7.372;2022-10-29T03:13:59;17.37;;;9.30;;
47429;SDS011;33181;49.246;7.372;2022-10-29T03:16:25;18.47;;;11.40;;
47429;SDS011;33181;49.246;7.372;2022-10-29T03:18:51;21.83;;;10.67;;
47429;SDS011;33181;49.246;7.372;2022-10-29T03:21:16;18.20;;;10.40;;
47429;SDS011;33181;49.246;7.372;2022-10-29T03:23:42;15.50;;;9.87;;
47429;SDS011;33181;49.246;7.372;2022-10-29T03:26:08;17.07;;;10.50;;
47429;SDS011;33181;49.246;7.372;2022-10-29T03:28:37;15.73;;;10.30;;
47429;SDS011;33181;49.246;7.372;2022-10-29T03:31:03;19.77;;;10.47;;
47429;SDS011;33181;49.246;7.372;2022-10-29T03:33:28;14.70;;;9.43;;
47429;SDS011;33181;49.246;7.372;2022-10-29T03:35:55;23.73;;;10.87;;
47429;SDS011;33181;49.246;7.372;2022-10-29T03:38:26;25.83;;;12.10;;
47429;SDS011;33181;49.246;7.372;2022-10-29T03:40:52;18.50;;;10.83;;
47429;SDS011;33181;49.246;7.372;2022-10-29T03:43:18;16.30;;;10.47;;
47429;SDS011;33181;49.246;7.372;2022-10-29T03:45:51;15.33;;;9.93;;
47429;SDS011;33181;49.246;7.372;2022-10-29T03:48:19;20.33;;;10.67;;
47429;SDS011;33181;49.246;7.372;2022-10-29T03:50:53;18.47;;;10.07;;
47429;SDS011;33181;49.246;7.372;2022-10-29T03:53:25;18.87;;;9.90;;
47429;SDS011;33181;49.246;7.372;2022-10-29T03:55:53;16.10;;;9.70;;
47429;SDS011;33181;49.246;7.372;2022-10-29T03:58:20;16.33;;;10.80;;
47429;SDS011;33181;49.246;7.372;2022-10-29T04:00:57;20.63;;;10.50;;
47429;SDS011;33181;49.246;7.372;2022-10-29T04:03:30;20.10;;;9.93;;
47429;SDS011;33181;49.246;7.372;2022-10-29T04:05:59;15.50;;;9.50;;
47429;SDS011;33181;49.246;7.372;2022-10-29T04:08:27;17.97;;;10.40;;
47429;SDS011;33181;49.246;7.372;2022-10-29T04:10:53;19.13;;;10.30;;
47429;SDS011;33181;49.246;7.372;2022-10-29T04:13:19;18.23;;;10.50;;
47429;SDS011;33181;49.246;7.372;2022-10-29T04:15:45;14.80;;;9.17;;
47429;SDS011;33181;49.246;7.372;2022-10-29T04:18:11;17.60;;;9.60;;
47429;SDS011;33181;49.246;7.372;2022-10-29T04:20:38;19.90;;;9.67;;
47429;SDS011;33181;49.246;7.372;2022-10-29T04:23:04;14.43;;;9.60;;
47429;SDS011;33181;49.246;7.372;2022-10-29T04:25:30;15.60;;;9.83;;
47429;SDS011;33181;49.246;7.372;2022-10-29T04:27:56;16.20;;;10.10;;
47429;SDS011;33181;49.246;7.372;2022-10-29T04:30:22;17.07;;;10.77;;
47429;SDS011;33181;49.246;7.372;2022-10-29T04:32:48;17.47;;;10.00;;
47429;SDS011;33181;49.246;7.372;2022-10-29T04:35:14;18.90;;;10.13;;
47429;SDS011;33181;49.246;7.372;2022-10-29T04:37:40;19.00;;;10.03;;
47429;SDS011;33181;49.246;7.372;2022-10-29T04:40:06;13.47;;;9.53;;
47429;SDS011;33181;49.246;7.372;2022-10-29T04:42:35;15.53;;;10.20;;
47429;SDS011;33181;49.246;7.372;2022-10-29T04:45:03;20.33;;;10.57;;
47429;SDS011;33181;49.246;7.372;2022-10-29T04:47:30;19.40;;;11.70;;
47429;SDS011;33181;49.246;7.372;2022-10-29T04:49:56;17.27;;;10.37;;
47429;SDS011;33181;49.246;7.372;2022-10-29T04:52:22;16.53;;;10.27;;
47429;SDS011;33181;49.246;7.372;2022-10-29T04:54:48;16.53;;;10.30;;
47429;SDS011;33181;49.246;7.372;2022-10-29T04:57:13;16.70;;;10.07;;
47429;SDS011;33181;49.246;7.372;2022-10-29T04:59:39;13.53;;;9.73;;
47429;SDS011;33181;49.246;7.372;2022-10-29T05:02:05;16.03;;;10.40;;
47429;SDS011;33181;49.246;7.372;2022-10-29T05:04:31;16.93;;;10.27;;
47429;SDS011;33181;49.246;7.372;2022-10-29T05:06:56;19.13;;;9.63;;
47429;SDS011;33181;49.246;7.372;2022-10-29T05:09:22;22.13;;;10.83;;
47429;SDS011;33181;49.246;7.372;2022-10-29T05:11:48;14.63;;;10.30;;
47429;SDS011;33181;49.246;7.372;2022-10-29T05:14:14;16.10;;;10.60;;
47429;SDS011;33181;49.246;7.372;2022-10-29T05:16:39;14.87;;;10.40;;
47429;SDS011;33181;49.246;7.372;2022-10-29T05:19:05;26.07;;;10.67;;
47429;SDS011;33181;49.246;7.372;2022-10-29T05:21:31;21.43;;;10.83;;
47429;SDS011;33181;49.246;7.372;2022-10-29T05:23:57;19.50;;;10.93;;
47429;SDS011;33181;49.246;7.372;2022-10-29T05:26:23;18.33;;;11.30;;
47429;SDS011;33181;49.246;7.372;2022-10-29T05:28:49;15.53;;;10.00;;
47429;SDS011;33181;49.246;7.372;2022-10-29T05:31:15;19.17;;;12.00;;
47429;SDS011;33181;49.246;7.372;2022-10-29T05:33:42;17.50;;;10.77;;
47429;SDS011;33181;49.246;7.372;2022-10-29T05:36:08;16.20;;;10.53;;
47429;SDS011;33181;49.246;7.372;2022-10-29T05:38:33;14.83;;;10.07;;
47429;SDS011;33181;49.246;7.372;2022-10-29T05:40:59;15.20;;;9.70;;
47429;SDS011;33181;49.246;7.372;2022-10-29T05:43:25;21.10;;;11.30;;
47429;SDS011;33181;49.246;7.372;2022-10-29T05:45:51;19.20;;;11.33;;
47429;SDS011;33181;49.246;7.372;2022-10-29T05:48:17;15.87;;;10.13;;
47429;SDS011;33181;49.246;7.372;2022-10-29T05:50:43;22.10;;;12.10;;
47429;SDS011;33181;49.246;7.372;2022-10-29T05:53:10;21.60;;;11.20;;
47429;SDS011;33181;49.246;7.372;2022-10-29T05:55:38;18.40;;;10.70;;
47429;SDS011;33181;49.246;7.372;2022-10-29T05:58:06;21.70;;;10.90;;
47429;SDS011;33181;49.246;7.372;2022-10-29T06:00:38;15.87;;;10.20;;
47429;SDS011;33181;49.246;7.372;2022-10-29T06:03:14;16.63;;;9.97;;
47429;SDS011;33181;49.246;7.372;2022-10-29T06:05:43;13.97;;;10.47;;
47429;SDS011;33181;49.246;7.372;2022-10-29T06:08:10;19.60;;;10.17;;
47429;SDS011;33181;49.246;7.372;2022-10-29T06:10:36;16.20;;;9.30;;
47429;SDS011;33181;49.246;7.372;2022-10-29T06:13:08;14.13;;;9.60;;
47429;SDS011;33181;49.246;7.372;2022-10-29T06:15:39;18.33;;;9.70;;
47429;SDS011;33181;49.246;7.372;2022-10-29T06:18:05;14.30;;;9.97;;
47429;SDS011;33181;49.246;7.372;2022-10-29T06:20:31;19.13;;;9.00;;
47429;SDS011;33181;49.246;7.372;2022-10-29T06:22:57;15.67;;;9.37;;
47429;SDS011;33181;49.246;7.372;2022-10-29T06:25:24;17.93;;;9.47;;
47429;SDS011;33181;49.246;7.372;2022-10-29T06:28:07;15.37;;;9.37;;
47429;SDS011;33181;49.246;7.372;2022-10-29T06:30:39;17.67;;;9.47;;
47429;SDS011;33181;49.246;7.372;2022-10-29T06:33:09;19.97;;;9.90;;
47429;SDS011;33181;49.246;7.372;2022-10-29T06:35:35;17.00;;;11.40;;
47429;SDS011;33181;49.246;7.372;2022-10-29T06:38:01;16.93;;;11.30;;
47429;SDS011;33181;49.246;7.372;2022-10-29T06:40:27;15.00;;;10.20;;
47429;SDS011;33181;49.246;7.372;2022-10-29T06:43:03;15.37;;;9.90;;
47429;SDS011;33181;49.246;7.372;2022-10-29T06:45:31;17.43;;;11.40;;
47429;SDS011;33181;49.246;7.372;2022-10-29T06:47:58;18.17;;;11.83;;
47429;SDS011;33181;49.246;7.372;2022-10-29T06:50:24;15.10;;;11.10;;
47429;SDS011;33181;49.246;7.372;2022-10-29T06:53:08;22.73;;;12.90;;
47429;SDS011;33181;49.246;7.372;2022-10-29T06:55:37;17.17;;;12.00;;
47429;SDS011;33181;49.246;7.372;2022-10-29T06:58:08;17.43;;;11.30;;
47429;SDS011;33181;49.246;7.372;2022-10-29T07:00:37;19.23;;;10.30;;
47429;SDS011;33181;49.246;7.372;2022-10-29T07:03:03;21.90;;;11.83;;
47429;SDS011;33181;49.246;7.372;2022-10-29T07:05:30;19.30;;;11.13;;
47429;SDS011;33181;49.246;7.372;2022-10-29T07:07:57;14.77;;;10.50;;
47429;SDS011;33181;49.246;7.372;2022-10-29T07:10:25;14.07;;;10.17;;
47429;SDS011;33181;49.246;7.372;2022-10-29T07:12:53;22.17;;;10.80;;
47429;SDS011;33181;49.246;7.372;2022-10-29T07:15:19;18.37;;;10.00;;
47429;SDS011;33181;49.246;7.372;2022-10-29T07:18:05;16.47;;;10.03;;
47429;SDS011;33181;49.246;7.372;2022-10-29T07:20:33;18.90;;;10.53;;
47429;SDS011;33181;49.246;7.372;2022-10-29T07:23:05;18.30;;;10.60;;
47429;SDS011;33181;49.246;7.372;2022-10-29T07:25:32;18.53;;;10.80;;
47429;SDS011;33181;49.246;7.372;2022-10-29T07:28:12;19.00;;;9.67;;
47429;SDS011;33181;49.246;7.372;2022-10-29T07:30:45;14.97;;;10.03;;
47429;SDS011;33181;49.246;7.372;2022-10-29T07:33:15;18.87;;;10.60;;
47429;SDS011;33181;49.246;7.372;2022-10-29T07:35:41;18.73;;;10.57;;
47429;SDS011;33181;49.246;7.372;2022-10-29T07:38:09;15.57;;;9.97;;
47429;SDS011;33181;49.246;7.372;2022-10-29T07:40:37;17.60;;;10.67;;
47429;SDS011;33181;49.246;7.372;2022-10-29T07:43:04;21.40;;;11.40;;
47429;SDS011;33181;49.246;7.372;2022-10-29T07:45:30;20.90;;;10.70;;
47429;SDS011;33181;49.246;7.372;2022-10-29T07:47:57;20.67;;;10.43;;
47429;SDS011;33181;49.246;7.372;2022-10-29T07:50:24;23.40;;;10.90;;
47429;SDS011;33181;49.246;7.372;2022-10-29T07:52:51;20.00;;;10.33;;
47429;SDS011;33181;49.246;7.372;2022-10-29T07:55:16;20.73;;;10.80;;
47429;SDS011;33181;49.246;7.372;2022-10-29T07:57:42;25.80;;;10.63;;
47429;SDS011;33181;49.246;7.372;2022-10-29T08:00:08;24.47;;;10.83;;
47429;SDS011;33181;49.246;7.372;2022-10-29T08:02:36;17.90;;;10.20;;
47429;SDS011;33181;49.246;7.372;2022-10-29T08:05:03;21.40;;;10.70;;
47429;SDS011;33181;49.246;7.372;2022-10-29T08:07:29;15.27;;;9.73;;
47429;SDS011;33181;49.246;7.372;2022-10-29T08:09:56;21.03;;;10.33;;
47429;SDS011;33181;49.246;7.372;2022-10-29T08:12:21;19.30;;;10.43;;
47429;SDS011;33181;49.246;7.372;2022-10-29T08:14:47;15.93;;;10.07;;
47429;SDS011;33181;49.246;7.372;2022-10-29T08:17:13;25.77;;;12.10;;
47429;SDS011;33181;49.246;7.372;2022-10-29T08:19:39;18.87;;;10.57;;
47429;SDS011;33181;49.246;7.372;2022-10-29T08:22:04;21.17;;;11.20;;
47429;SDS011;33181;49.246;7.372;2022-10-29T08:24:30;16.17;;;10.80;;
47429;SDS011;33181;49.246;7.372;2022-10-29T08:26:56;21.23;;;11.47;;
47429;SDS011;33181;49.246;7.372;2022-10-29T08:29:21;20.27;;;10.63;;
47429;SDS011;33181;49.246;7.372;2022-10-29T08:31:47;19.30;;;10.20;;
47429;SDS011;33181;49.246;7.372;2022-10-29T08:34:13;21.03;;;10.90;;
47429;SDS011;33181;49.246;7.372;2022-10-29T08:36:39;20.43;;;11.00;;
47429;SDS011;33181;49.246;7.372;2022-10-29T08:39:05;18.90;;;9.57;;
47429;SDS011;33181;49.246;7.372;2022-10-29T08:41:37;18.53;;;10.30;;
47429;SDS011;33181;49.246;7.372;2022-10-29T08:44:50;16.20;;;9.60;;
47429;SDS011;33181;49.246;7.372;2022-10-29T08:47:20;17.43;;;9.33;;
47429;SDS011;33181;49.246;7.372;2022-10-29T08:52:26;17.67;;;9.03;;
47429;SDS011;33181;49.246;7.372;2022-10-29T08:57:54;16.87;;;8.90;;
47429;SDS011;33181;49.246;7.372;2022-10-29T09:00:30;15.27;;;9.60;;
47429;SDS011;33181;49.246;7.372;2022-10-29T09:03:07;15.57;;;9.47;;
47429;SDS011;33181;49.246;7.372;2022-10-29T09:17:47;16.53;;;8.47;;
47429;SDS011;33181;49.246;7.372;2022-10-29T09:26:12;18.57;;;7.90;;
47429;SDS011;33181;49.246;7.372;2022-10-29T09:31:54;16.70;;;8.20;;
47429;SDS011;33181;49.246;7.372;2022-10-29T09:35:05;17.33;;;7.43;;
47429;SDS011;33181;49.246;7.372;2022-10-29T09:37:53;17.43;;;9.03;;
47429;SDS011;33181;49.246;7.372;2022-10-29T09:42:59;14.83;;;8.27;;
47429;SDS011;33181;49.246;7.372;2022-10-29T09:45:40;14.50;;;7.97;;
47429;SDS011;33181;49.246;7.372;2022-10-29T09:48:29;18.03;;;8.30;;
47429;SDS011;33181;49.246;7.372;2022-10-29T09:51:16;14.87;;;8.50;;
47429;SDS011;33181;49.246;7.372;2022-10-29T09:53:55;17.03;;;9.03;;
47429;SDS011;33181;49.246;7.372;2022-10-29T09:56:21;16.90;;;8.63;;
47429;SDS011;33181;49.246;7.372;2022-10-29T09:58:48;17.73;;;8.17;;
47429;SDS011;33181;49.246;7.372;2022-10-29T10:01:21;14.30;;;8.57;;
47429;SDS011;33181;49.246;7.372;2022-10-29T10:03:47;13.30;;;8.20;;
47429;SDS011;33181;49.246;7.372;2022-10-29T10:06:20;12.53;;;7.63;;
47429;SDS011;33181;49.246;7.372;2022-10-29T10:11:41;19.03;;;7.80;;
47429;SDS011;33181;49.246;7.372;2022-10-29T10:14:15;16.13;;;6.80;;
47429;SDS011;33181;49.246;7.372;2022-10-29T10:16:45;9.67;;;6.73;;
47429;SDS011;33181;49.246;7.372;2022-10-29T10:19:28;11.13;;;6.73;;
47429;SDS011;33181;49.246;7.372;2022-10-29T10:22:03;13.43;;;6.70;;
47429;SDS011;33181;49.246;7.372;2022-10-29T10:24:33;17.43;;;7.37;;
47429;SDS011;33181;49.246;7.372;2022-10-29T10:29:42;13.20;;;6.57;;
47429;SDS011;33181;49.246;7.372;2022-10-29T10:32:29;12.13;;;7.40;;
47429;SDS011;33181;49.246;7.372;2022-10-29T10:34:56;17.43;;;6.60;;
47429;SDS011;33181;49.246;7.372;2022-10-29T10:37:22;12.20;;;6.73;;
47429;SDS011;33181;49.246;7.372;2022-10-29T10:40:02;14.00;;;6.97;;
47429;SDS011;33181;49.246;7.372;2022-10-29T10:42:30;19.37;;;6.70;;
47429;SDS011;33181;49.246;7.372;2022-10-29T10:45:22;12.17;;;6.30;;
47429;SDS011;33181;49.246;7.372;2022-10-29T10:47:58;13.40;;;6.77;;
47429;SDS011;33181;49.246;7.372;2022-10-29T10:50:26;19.07;;;7.50;;
47429;SDS011;33181;49.246;7.372;2022-10-29T10:52:58;13.27;;;6.33;;
47429;SDS011;33181;49.246;7.372;2022-10-29T10:55:59;15.17;;;7.80;;
47429;SDS011;33181;49.246;7.372;2022-10-29T10:58:40;14.47;;;6.60;;
47429;SDS011;33181;49.246;7.372;2022-10-29T11:01:22;10.17;;;6.60;;
47429;SDS011;33181;49.246;7.372;2022-10-29T11:06:54;9.10;;;5.80;;
47429;SDS011;33181;49.246;7.372;2022-10-29T11:09:32;23.40;;;7.17;;
47429;SDS011;33181;49.246;7.372;2022-10-29T11:20:36;14.80;;;6.20;;
47429;SDS011;33181;49.246;7.372;2022-10-29T11:25:53;13.33;;;6.30;;
47429;SDS011;33181;49.246;7.372;2022-10-29T11:28:54;12.87;;;6.33;;
47429;SDS011;33181;49.246;7.372;2022-10-29T11:40:36;8.37;;;5.30;;
47429;SDS011;33181;49.246;7.372;2022-10-29T11:43:19;12.43;;;6.30;;
47429;SDS011;33181;49.246;7.372;2022-10-29T11:51:30;8.93;;;4.83;;
47429;SDS011;33181;49.246;7.372;2022-10-29T11:57:26;10.97;;;6.37;;
47429;SDS011;33181;49.246;7.372;2022-10-29T12:00:06;14.47;;;5.63;;
47429;SDS011;33181;49.246;7.372;2022-10-29T12:08:35;18.27;;;5.73;;
47429;SDS011;33181;49.246;7.372;2022-10-29T12:11:32;11.33;;;5.30;;
47429;SDS011;33181;49.246;7.372;2022-10-29T12:14:24;13.20;;;5.30;;
47429;SDS011;33181;49.246;7.372;2022-10-29T12:25:23;10.97;;;5.00;;
47429;SDS011;33181;49.246;7.372;2022-10-29T12:34:13;10.87;;;4.47;;
47429;SDS011;33181;49.246;7.372;2022-10-29T12:37:04;14.47;;;5.20;;
47429;SDS011;33181;49.246;7.372;2022-10-29T12:39:50;8.10;;;4.30;;
47429;SDS011;33181;49.246;7.372;2022-10-29T12:42:27;10.83;;;4.67;;
47429;SDS011;33181;49.246;7.372;2022-10-29T12:47:29;10.80;;;5.13;;
47429;SDS011;33181;49.246;7.372;2022-10-29T12:52:37;9.20;;;4.67;;
47429;SDS011;33181;49.246;7.372;2022-10-29T12:55:29;13.20;;;5.83;;
47429;SDS011;33181;49.246;7.372;2022-10-29T12:57:56;13.77;;;4.80;;
47429;SDS011;33181;49.246;7.372;2022-10-29T13:02:48;13.13;;;5.27;;
47429;SDS011;33181;49.246;7.372;2022-10-29T13:18:07;13.50;;;5.00;;
47429;SDS011;33181;49.246;7.372;2022-10-29T13:21:05;14.40;;;5.77;;
47429;SDS011;33181;49.246;7.372;2022-10-29T13:23:31;15.80;;;5.40;;
47429;SDS011;33181;49.246;7.372;2022-10-29T13:26:02;7.87;;;5.27;;
47429;SDS011;33181;49.246;7.372;2022-10-29T13:36:02;9.63;;;5.57;;
47429;SDS011;33181;49.246;7.372;2022-10-29T13:41:19;10.30;;;4.87;;
47429;SDS011;33181;49.246;7.372;2022-10-29T13:44:03;11.87;;;5.97;;
47429;SDS011;33181;49.246;7.372;2022-10-29T14:00:23;16.87;;;5.20;;
47429;SDS011;33181;49.246;7.372;2022-10-29T14:02:57;13.87;;;5.43;;
47429;SDS011;33181;49.246;7.372;2022-10-29T14:11:12;19.43;;;6.17;;
47429;SDS011;33181;49.246;7.372;2022-10-29T14:13:48;10.90;;;5.20;;
47429;SDS011;33181;49.246;7.372;2022-10-29T14:16:23;10.13;;;5.77;;
47429;SDS011;33181;49.246;7.372;2022-10-29T14:18:53;10.80;;;5.37;;
47429;SDS011;33181;49.246;7.372;2022-10-29T14:23:55;13.77;;;5.77;;
47429;SDS011;33181;49.246;7.372;2022-10-29T14:26:23;14.07;;;5.17;;
47429;SDS011;33181;49.246;7.372;2022-10-29T14:28:50;11.10;;;5.00;;
47429;SDS011;33181;49.246;7.372;2022-10-29T14:33:56;9.90;;;6.30;;
47429;SDS011;33181;49.246;7.372;2022-10-29T14:36:30;16.73;;;5.50;;
47429;SDS011;33181;49.246;7.372;2022-10-29T14:39:14;11.10;;;5.90;;
47429;SDS011;33181;49.246;7.372;2022-10-29T14:41:57;16.73;;;6.20;;
47429;SDS011;33181;49.246;7.372;2022-10-29T14:44:28;11.17;;;6.43;;
47429;SDS011;33181;49.246;7.372;2022-10-29T14:49:27;9.40;;;5.93;;
47429;SDS011;33181;49.246;7.372;2022-10-29T14:52:01;12.33;;;5.47;;
47429;SDS011;33181;49.246;7.372;2022-10-29T14:54:33;13.80;;;6.27;;
47429;SDS011;33181;49.246;7.372;2022-10-29T14:57:05;13.73;;;6.43;;
47429;SDS011;33181;49.246;7.372;2022-10-29T14:59:38;12.67;;;6.70;;
47429;SDS011;33181;49.246;7.372;2022-10-29T15:02:16;12.10;;;6.63;;
47429;SDS011;33181;49.246;7.372;2022-10-29T15:04:46;12.83;;;6.80;;
47429;SDS011;33181;49.246;7.372;2022-10-29T15:07:28;12.37;;;7.10;;
47429;SDS011;33181;49.246;7.372;2022-10-29T15:12:47;12.33;;;6.10;;
47429;SDS011;33181;49.246;7.372;2022-10-29T15:23:05;15.37;;;8.57;;
47429;SDS011;33181;49.246;7.372;2022-10-29T15:26:08;14.40;;;8.10;;
47429;SDS011;33181;49.246;7.372;2022-10-29T15:28:44;15.53;;;7.90;;
47429;SDS011;33181;49.246;7.372;2022-10-29T15:34:14;14.80;;;7.10;;
47429;SDS011;33181;49.246;7.372;2022-10-29T15:36:51;11.83;;;6.53;;
47429;SDS011;33181;49.246;7.372;2022-10-29T15:42:00;14.40;;;7.80;;
47429;SDS011;33181;49.246;7.372;2022-10-29T15:44:34;14.63;;;8.53;;
47429;SDS011;33181;49.246;7.372;2022-10-29T15:47:20;11.50;;;7.30;;
47429;SDS011;33181;49.246;7.372;2022-10-29T15:49:52;10.87;;;7.60;;
47429;SDS011;33181;49.246;7.372;2022-10-29T15:52:18;15.27;;;6.87;;
47429;SDS011;33181;49.246;7.372;2022-10-29T15:54:45;12.37;;;5.77;;
47429;SDS011;33181;49.246;7.372;2022-10-29T15:57:12;13.23;;;6.10;;
47429;SDS011;33181;49.246;7.372;2022-10-29T15:59:40;13.90;;;6.57;;
47429;SDS011;33181;49.246;7.372;2022-10-29T16:02:08;17.30;;;7.40;;
47429;SDS011;33181;49.246;7.372;2022-10-29T16:04:36;16.30;;;6.07;;
47429;SDS011;33181;49.246;7.372;2022-10-29T16:07:02;15.50;;;6.70;;
47429;SDS011;33181;49.246;7.372;2022-10-29T16:09:27;14.90;;;6.83;;
47429;SDS011;33181;49.246;7.372;2022-10-29T16:11:53;18.43;;;7.20;;
47429;SDS011;33181;49.246;7.372;2022-10-29T16:14:19;13.40;;;6.87;;
47429;SDS011;33181;49.246;7.372;2022-10-29T16:16:45;11.50;;;6.27;;
47429;SDS011;33181;49.246;7.372;2022-10-29T16:19:10;16.67;;;7.53;;
47429;SDS011;33181;49.246;7.372;2022-10-29T16:21:36;13.13;;;7.20;;
47429;SDS011;33181;49.246;7.372;2022-10-29T16:24:02;14.63;;;6.70;;
47429;SDS011;33181;49.246;7.372;2022-10-29T16:26:28;11.90;;;6.77;;
47429;SDS011;33181;49.246;7.372;2022-10-29T16:28:54;14.00;;;6.30;;
47429;SDS011;33181;49.246;7.372;2022-10-29T16:31:24;19.00;;;9.70;;
47429;SDS011;33181;49.246;7.372;2022-10-29T16:33:53;13.40;;;8.83;;
47429;SDS011;33181;49.246;7.372;2022-10-29T16:36:22;17.07;;;9.70;;
47429;SDS011;33181;49.246;7.372;2022-10-29T16:38:48;14.97;;;8.83;;
47429;SDS011;33181;49.246;7.372;2022-10-29T16:41:15;19.70;;;12.03;;
47429;SDS011;33181;49.246;7.372;2022-10-29T16:43:43;18.67;;;10.13;;
47429;SDS011;33181;49.246;7.372;2022-10-29T16:46:10;16.90;;;10.60;;
47429;SDS011;33181;49.246;7.372;2022-10-29T16:48:36;20.60;;;12.63;;
47429;SDS011;33181;49.246;7.372;2022-10-29T16:51:03;18.87;;;11.60;;
47429;SDS011;33181;49.246;7.372;2022-10-29T16:53:29;19.37;;;10.43;;
47429;SDS011;33181;49.246;7.372;2022-10-29T16:55:56;22.50;;;11.10;;
47429;SDS011;33181;49.246;7.372;2022-10-29T16:58:22;22.03;;;10.97;;
47429;SDS011;33181;49.246;7.372;2022-10-29T17:00:48;20.47;;;11.53;;
47429;SDS011;33181;49.246;7.372;2022-10-29T17:03:14;27.13;;;13.60;;
47429;SDS011;33181;49.246;7.372;2022-10-29T17:05:43;21.13;;;12.13;;
47429;SDS011;33181;49.246;7.372;2022-10-29T17:08:11;19.00;;;12.10;;
47429;SDS011;33181;49.246;7.372;2022-10-29T17:10:37;22.10;;;12.30;;
47429;SDS011;33181;49.246;7.372;2022-10-29T17:13:03;29.67;;;12.67;;
47429;SDS011;33181;49.246;7.372;2022-10-29T17:15:37;25.33;;;12.40;;
47429;SDS011;33181;49.246;7.372;2022-10-29T17:18:04;23.20;;;12.17;;
47429;SDS011;33181;49.246;7.372;2022-10-29T17:20:30;23.87;;;13.40;;
47429;SDS011;33181;49.246;7.372;2022-10-29T17:22:56;21.63;;;13.87;;
47429;SDS011;33181;49.246;7.372;2022-10-29T17:25:22;23.03;;;13.03;;
47429;SDS011;33181;49.246;7.372;2022-10-29T17:27:48;22.40;;;13.73;;
47429;SDS011;33181;49.246;7.372;2022-10-29T17:30:14;23.13;;;14.40;;
47429;SDS011;33181;49.246;7.372;2022-10-29T17:32:39;30.50;;;18.17;;
47429;SDS011;33181;49.246;7.372;2022-10-29T17:35:05;29.00;;;18.67;;
47429;SDS011;33181;49.246;7.372;2022-10-29T17:37:31;27.03;;;17.37;;
47429;SDS011;33181;49.246;7.372;2022-10-29T17:39:57;26.73;;;17.33;;
47429;SDS011;33181;49.246;7.372;2022-10-29T17:42:23;26.80;;;15.73;;
47429;SDS011;33181;49.246;7.372;2022-10-29T17:44:48;32.13;;;15.80;;
47429;SDS011;33181;49.246;7.372;2022-10-29T17:47:14;28.03;;;15.87;;
47429;SDS011;33181;49.246;7.372;2022-10-29T17:49:40;31.53;;;15.63;;
47429;SDS011;33181;49.246;7.372;2022-10-29T17:52:06;24.87;;;14.97;;
47429;SDS011;33181;49.246;7.372;2022-10-29T17:54:32;25.63;;;14.80;;
47429;SDS011;33181;49.246;7.372;2022-10-29T17:56:58;27.90;;;15.57;;
47429;SDS011;33181;49.246;7.372;2022-10-29T17:59:23;29.53;;;15.00;;